No requereix especial atenció pel que fa al clima.   -   No hi ha Alarmes

Resums METAR propers

 

LEBL - Barcelona Airpor, Spain
Distància des de l'estació: SSE 30km
Actualització: 20/09/2018 06:00
Seré
Seré
 Vent del NO
Vent: NO 19 km/h
Temperatura: 21°C
Rosada: 19°C
Humitat: 88%
Baròmetre: 1019 hPa
Resum: Seré
Visibilitat: major de 10 km
2018/09/20 04:00 LEBL 200400Z 32010KT CAVOK 21/19 Q1019 NOSIG
LELL - Sabadell, Spain
Distància des de l'estació: ONO 14km
Actualització: 19/09/2018 19:30
NO actualitzat
Tapat
Tapat
 Vent del SE
Vent: SE 7 km/h
Temperatura: 25°C
Rosada: 21°C
Humitat: 79%
Baròmetre: 1020 hPa
Nuvolositat: Tapat
Visibilitat: 7 km
Detalls nuvolositat: Tapat 853 m
2018/09/19 17:30 LELL 191730Z 13004KT 080V160 7000 OVC028 25/21 Q1020
 
LEGE - Girona/Costa Bra, Spain
Distància des de l'estació: NE 65km
Actualització: 20/09/2018 06:00
Mist, Parcialment cobert
Mist, Parcialment cobert
 Vent del calm
Vent: Calma
Temperatura: 16°C
Rosada: 16°C
Humitat: 100%
Baròmetre: 1019 hPa
Resum: Mist
Nuvolositat: Parcialment cobert
Visibilitat: 5 km
2018/09/20 04:00 LEGE 200400Z 00000KT 5000 BR NSC 16/16 Q1019
LERS - Reus (civ/Mil), Spain
Distància des de l'estació: OSO 96km
Actualització: 20/09/2018 06:00
Seré
Seré
 Vent del NNE
Vent: NNE 7 km/h
Temperatura: 18°C
Rosada: 18°C
Humitat: 100%
Baròmetre: 1019 hPa
Nuvolositat: Seré
Visibilitat: 10 km
2018/09/20 04:00 LERS 200400Z AUTO 03004KT 9999 NCD 18/18 Q1019
 
LESU - Pirineus/La Seu, Spain
Distància des de l'estació: NO 121km
Actualització: 19/09/2018 19:00
NO actualitzat
Parcialment cobert
Parcialment cobert
 Vent del SO
Vent: SO 13 km/h
Temperatura: 25°C
Rosada: 14°C
Humitat: 51%
Baròmetre: 1022 hPa
Nuvolositat: Parcialment cobert
Visibilitat: 10 km
Detalls nuvolositat: Alguns núvols 1219 m
Parcialment cobert 1372 m
2018/09/19 17:00 LESU 191700Z 23007KT 9999 FEW040TCU SCT045 25/14 Q1022
LEDA - Lleida/Alguaire, Spain
Distància des de l'estació: ONO 146km
Actualització: 20/09/2018 06:00
Seré
Seré
 Vent del NNE
Vent: NNE 4 km/h
Temperatura: 18°C
Rosada: 16°C
Humitat: 88%
Baròmetre: 1021 hPa
Nuvolositat: Seré
Visibilitat: 10 km
2018/09/20 04:00 LEDA 200400Z AUTO 02002KT 9999 NCD 18/16 Q1021
 
LFMP - Perpignan/Rivesa, France
Distància des de l'estació: NNE 150km
Actualització: 20/09/2018 06:00
Seré
Seré
 Vent del OSO
Vent: OSO 15 km/h
Temperatura: 22°C
Rosada: 14°C
Humitat: 61%
Baròmetre: 1018 hPa
Resum: Seré
Visibilitat: major de 10 km
2018/09/20 04:00 LFMP 200400Z AUTO 25008KT CAVOK 22/14 Q1018 NOSIG
LEPA - Palma De Mallorca, Spain
Distància des de l'estació: S 216km
Actualització: 20/09/2018 06:00
Seré
Seré
 Vent del N
Vent: N 4 km/h
Temperatura: 18°C
Rosada: 18°C
Humitat: 100%
Baròmetre: 1019 hPa
Resum: Seré
Visibilitat: major de 10 km
2018/09/20 04:00 LEPA 200400Z 36002KT CAVOK 18/18 Q1019 NOSIG